createdAt,value
2023-03-18T00:01:51.970Z,18.63
2023-03-18T00:06:53.463Z,18.98
2023-03-18T00:11:56.549Z,18.87
2023-03-18T00:16:57.946Z,18.89
2023-03-18T00:21:59.608Z,18.94
2023-03-18T00:27:01.055Z,18.68
2023-03-18T00:32:02.581Z,18.68
2023-03-18T00:37:03.994Z,18.77
2023-03-18T00:42:10.534Z,18.58
2023-03-18T00:47:11.922Z,18.50
2023-03-18T00:52:13.564Z,18.53
2023-03-18T00:57:14.952Z,18.59
2023-03-18T01:02:17.020Z,18.56
2023-03-18T01:07:19.360Z,18.35
2023-03-18T01:12:20.756Z,18.45
2023-03-18T01:17:22.175Z,18.59
2023-03-18T01:22:24.232Z,18.64
2023-03-18T01:27:25.646Z,18.42
2023-03-18T01:32:27.211Z,18.27
2023-03-18T01:37:28.898Z,18.38
2023-03-18T01:42:30.343Z,18.48
2023-03-18T01:47:31.777Z,18.46
2023-03-18T01:52:33.249Z,18.32
2023-03-18T01:57:34.706Z,18.36
2023-03-18T02:02:36.087Z,18.38
2023-03-18T02:07:37.938Z,18.63
2023-03-18T02:12:41.295Z,18.55
2023-03-18T02:17:46.752Z,18.47
2023-03-18T02:22:53.887Z,18.58
2023-03-18T02:28:00.534Z,18.25
2023-03-18T02:33:01.981Z,18.37
2023-03-18T02:38:04.639Z,18.58
2023-03-18T02:43:22.546Z,18.58
2023-03-18T02:48:25.958Z,18.38
2023-03-18T02:53:27.660Z,18.53
2023-03-18T02:58:29.042Z,18.64
2023-03-18T03:03:30.994Z,18.58
2023-03-18T03:08:32.382Z,18.36
2023-03-18T03:13:33.834Z,18.47
2023-03-18T03:18:35.398Z,18.60
2023-03-18T03:23:37.094Z,18.69
2023-03-18T03:28:38.471Z,18.68
2023-03-18T03:33:41.694Z,18.68
2023-03-18T03:38:43.448Z,18.43
2023-03-18T03:43:45.373Z,18.62
2023-03-18T03:48:47.800Z,18.66
2023-03-18T03:53:49.189Z,18.62
2023-03-18T03:58:50.596Z,18.62
2023-03-18T04:03:52.490Z,18.60
2023-03-18T04:08:53.868Z,18.70
2023-03-18T04:13:55.287Z,18.68
2023-03-18T04:18:56.676Z,18.72
2023-03-18T04:23:58.103Z,18.48
2023-03-18T04:28:59.484Z,18.88
2023-03-18T04:34:00.905Z,18.63
2023-03-18T04:39:02.529Z,18.94
2023-03-18T04:44:03.907Z,18.59
2023-03-18T04:49:05.329Z,18.63
2023-03-18T04:54:06.718Z,18.76
2023-03-18T04:59:09.052Z,18.72
2023-03-18T05:04:10.470Z,18.87
2023-03-18T05:09:13.127Z,18.73
2023-03-18T05:14:15.387Z,18.70
2023-03-18T05:19:17.077Z,18.91
2023-03-18T05:24:18.510Z,18.95
2023-03-18T05:29:19.896Z,18.73
2023-03-18T05:34:21.448Z,18.79
2023-03-18T05:39:22.834Z,18.97
2023-03-18T05:44:24.405Z,18.98
2023-03-18T05:49:27.100Z,19.00
2023-03-18T05:54:28.735Z,18.81
2023-03-18T05:59:30.204Z,18.53
2023-03-18T06:04:31.947Z,18.82
2023-03-18T06:09:34.208Z,18.95
2023-03-18T06:14:37.155Z,18.62
2023-03-18T06:19:38.641Z,18.71
2023-03-18T06:24:40.042Z,18.85
2023-03-18T06:29:41.601Z,18.68
2023-03-18T06:34:43.004Z,18.75
2023-03-18T06:39:44.649Z,18.95
2023-03-18T06:44:50.476Z,19.00
2023-03-18T06:49:51.941Z,18.89
2023-03-18T06:54:53.379Z,19.04
2023-03-18T06:59:54.777Z,19.14
2023-03-18T07:04:56.162Z,19.01
2023-03-18T07:09:57.540Z,19.06
2023-03-18T07:14:58.972Z,18.88
2023-03-18T07:20:00.360Z,19.20
2023-03-18T07:25:01.747Z,19.05
2023-03-18T07:30:03.609Z,19.10
2023-03-18T07:35:05.768Z,19.20
2023-03-18T07:40:08.342Z,19.27
2023-03-18T07:45:10.146Z,19.41
2023-03-18T07:50:12.179Z,19.54
2023-03-18T07:55:13.670Z,19.29
2023-03-18T08:00:15.307Z,19.28
2023-03-18T08:05:16.702Z,19.34
2023-03-18T08:10:18.159Z,19.57
2023-03-18T08:15:19.582Z,19.68
2023-03-18T08:20:21.391Z,19.54
2023-03-18T08:25:23.506Z,19.44
2023-03-18T08:30:28.454Z,19.74
2023-03-18T08:35:30.218Z,19.66
2023-03-18T08:40:32.457Z,19.87
2023-03-18T08:45:34.364Z,19.67
2023-03-18T08:50:36.521Z,19.67
2023-03-18T08:55:37.973Z,19.96
2023-03-18T09:00:39.663Z,19.89
2023-03-18T09:05:41.289Z,19.97
2023-03-18T09:10:45.097Z,20.05
2023-03-18T09:15:46.932Z,20.02
2023-03-18T09:20:48.306Z,20.20
2023-03-18T09:25:50.108Z,20.23
2023-03-18T09:30:51.631Z,20.36
2023-03-18T09:35:54.027Z,20.33
2023-03-18T09:41:43.557Z,20.42
2023-03-18T09:46:56.964Z,20.38
2023-03-18T09:52:11.439Z,20.38
2023-03-18T09:57:16.945Z,20.46
2023-03-18T10:02:32.614Z,20.57
2023-03-18T10:07:37.080Z,20.51
2023-03-18T10:12:47.834Z,20.51
2023-03-18T10:18:27.804Z,20.57
2023-03-18T10:23:54.804Z,20.78
2023-03-18T10:29:37.735Z,20.89
2023-03-18T10:34:51.132Z,20.80
2023-03-18T10:39:53.039Z,20.80
2023-03-18T10:44:55.991Z,20.97
2023-03-18T10:50:17.244Z,21.07
2023-03-18T10:55:21.617Z,21.09
2023-03-18T11:00:27.768Z,21.40
2023-03-18T11:05:34.903Z,21.66
2023-03-18T11:10:45.637Z,21.11
2023-03-18T11:15:50.089Z,21.34
2023-03-18T11:21:00.816Z,21.68
2023-03-18T11:26:02.299Z,21.63
2023-03-18T11:31:05.103Z,21.54
2023-03-18T11:36:06.828Z,21.75
2023-03-18T11:41:24.361Z,21.81
2023-03-18T11:46:27.714Z,21.72
2023-03-18T11:51:40.114Z,21.94
2023-03-18T11:56:48.463Z,22.33
2023-03-18T12:02:14.106Z,22.19
2023-03-18T12:07:38.564Z,22.37
2023-03-18T12:12:59.729Z,22.31
2023-03-18T12:18:12.371Z,22.44
2023-03-18T12:23:21.167Z,22.54
2023-03-18T12:28:42.447Z,22.33
2023-03-18T12:33:55.024Z,22.40
2023-03-18T12:39:18.857Z,22.55
2023-03-18T12:44:57.913Z,22.59
2023-03-18T12:50:02.092Z,22.64
2023-03-18T12:55:16.052Z,22.67
2023-03-18T13:00:28.224Z,22.77
2023-03-18T13:06:00.593Z,22.84
2023-03-18T13:11:26.791Z,22.94
2023-03-18T13:16:28.183Z,23.07
2023-03-18T13:21:30.847Z,22.94
2023-03-18T13:27:07.564Z,22.93
2023-03-18T13:32:36.827Z,22.84
2023-03-18T13:38:11.059Z,23.03
2023-03-18T13:43:17.324Z,23.15
2023-03-18T13:48:31.796Z,23.44
2023-03-18T13:53:34.359Z,23.44
2023-03-18T13:58:48.006Z,23.17
2023-03-18T14:03:49.280Z,23.61
2023-03-18T14:08:51.713Z,23.50
2023-03-18T14:13:57.311Z,23.70
2023-03-18T14:19:17.893Z,23.83
2023-03-18T14:24:19.093Z,24.07
2023-03-18T14:29:30.800Z,24.06
2023-03-18T14:34:33.178Z,23.91
2023-03-18T14:39:46.192Z,23.90
2023-03-18T14:44:50.026Z,23.82
2023-03-18T14:49:52.394Z,24.03
2023-03-18T14:54:54.943Z,24.22
2023-03-18T14:59:58.543Z,24.51
2023-03-18T15:05:00.603Z,24.21
2023-03-18T15:10:10.323Z,24.18
2023-03-18T15:15:14.425Z,24.31
2023-03-18T15:20:16.075Z,24.33
2023-03-18T15:25:20.855Z,24.44
2023-03-18T15:30:30.045Z,24.33
2023-03-18T15:35:31.914Z,24.65
2023-03-18T15:40:36.168Z,24.39
2023-03-18T15:46:00.743Z,24.54
2023-03-18T15:51:04.194Z,24.32
2023-03-18T15:56:23.683Z,24.32
2023-03-18T16:01:25.324Z,24.38
2023-03-18T16:06:26.951Z,24.40
2023-03-18T16:11:28.661Z,24.44
2023-03-18T16:16:30.451Z,24.34
2023-03-18T16:21:31.863Z,24.46
2023-03-18T16:26:33.289Z,24.46
2023-03-18T16:31:34.691Z,24.45
2023-03-18T16:36:36.185Z,24.44
2023-03-18T16:41:37.571Z,24.72
2023-03-18T16:46:38.959Z,24.50
2023-03-18T16:51:41.172Z,24.43
2023-03-18T16:56:42.564Z,24.47
2023-03-18T17:01:45.551Z,24.39
2023-03-18T17:06:46.958Z,24.54
2023-03-18T17:11:49.086Z,24.57
2023-03-18T17:16:50.479Z,24.40
2023-03-18T17:21:55.288Z,24.35
2023-03-18T17:26:56.697Z,24.38
2023-03-18T17:31:58.117Z,24.40
2023-03-18T17:36:59.558Z,24.53
2023-03-18T17:42:01.916Z,24.37
2023-03-18T17:47:03.332Z,24.15
2023-03-18T17:52:04.806Z,24.14
2023-03-18T17:57:06.228Z,24.25
2023-03-18T18:02:17.521Z,24.37
2023-03-18T18:07:22.019Z,24.38
2023-03-18T18:12:25.084Z,24.33
2023-03-18T18:17:26.473Z,24.13
2023-03-18T18:22:27.870Z,24.01
2023-03-18T18:27:29.268Z,24.08
2023-03-18T18:32:30.663Z,24.35
2023-03-18T18:37:33.634Z,24.14
2023-03-18T18:42:35.015Z,24.20
2023-03-18T18:47:37.264Z,24.14
2023-03-18T18:52:38.863Z,24.22
2023-03-18T18:57:43.121Z,24.01
2023-03-18T19:02:46.615Z,24.25
2023-03-18T19:07:48.032Z,24.15
2023-03-18T19:12:49.414Z,24.07
2023-03-18T19:17:51.228Z,23.83
2023-03-18T19:22:53.108Z,24.06
2023-03-18T19:27:54.709Z,23.97
2023-03-18T19:32:56.505Z,24.14
2023-03-18T19:37:59.094Z,24.03
2023-03-18T19:43:00.912Z,24.10
2023-03-18T19:48:02.309Z,24.11
2023-03-18T19:53:12.361Z,24.03
2023-03-18T19:58:23.893Z,24.22
2023-03-18T20:03:26.983Z,24.31
2023-03-18T20:08:28.484Z,23.89
2023-03-18T20:13:29.859Z,23.93
2023-03-18T20:18:31.235Z,24.00
2023-03-18T20:23:32.957Z,24.13
2023-03-18T20:28:34.324Z,23.86
2023-03-18T20:33:35.724Z,23.75
2023-03-18T20:38:38.557Z,23.81
2023-03-18T20:43:39.952Z,23.91
2023-03-18T20:48:41.556Z,23.87
2023-03-18T20:53:43.182Z,23.98
2023-03-18T20:58:44.593Z,23.81
2023-03-18T21:03:46.147Z,24.01
2023-03-18T21:08:47.562Z,23.60
2023-03-18T21:13:49.002Z,23.79
2023-03-18T21:18:50.504Z,23.98
2023-03-18T21:23:52.366Z,24.02
2023-03-18T21:28:53.801Z,23.83
2023-03-18T21:33:55.530Z,23.80
2023-03-18T21:38:56.921Z,23.98
2023-03-18T21:43:58.289Z,23.92
2023-03-18T21:48:59.813Z,24.14
2023-03-18T21:54:01.500Z,23.73
2023-03-18T21:59:02.896Z,23.76
2023-03-18T22:04:04.320Z,23.79
2023-03-18T22:09:05.737Z,23.86
2023-03-18T22:14:07.391Z,23.97
2023-03-18T22:19:08.758Z,23.97
2023-03-18T22:24:13.599Z,23.91
2023-03-18T22:29:15.176Z,23.72
2023-03-18T22:34:23.059Z,23.92
2023-03-18T22:39:24.536Z,23.83
2023-03-18T22:44:25.932Z,23.76
2023-03-18T22:49:27.354Z,23.92
2023-03-18T22:54:28.747Z,23.64
2023-03-18T22:59:30.278Z,23.96
2023-03-18T23:04:31.837Z,23.93
2023-03-18T23:09:34.718Z,23.86
2023-03-18T23:14:37.835Z,23.99
2023-03-18T23:19:39.223Z,23.86
2023-03-18T23:24:40.848Z,23.86
2023-03-18T23:29:43.268Z,23.75
2023-03-18T23:34:44.852Z,24.02
2023-03-18T23:39:46.444Z,23.91
2023-03-18T23:44:48.491Z,23.85
2023-03-18T23:49:49.932Z,23.84
2023-03-18T23:54:51.396Z,23.89
2023-03-18T23:59:52.789Z,24.09
